Time;durP1;ratioP1;P1;durP2;ratioP2;P2;SDS_P1;SDS_P2;PMS_P1;PMS_P2;Temp;Humidity;BMP_temperature;BMP_pressure;BME280_temperature;BME280_humidity;BME280_pressure;Samples;Min_cycle;Max_cycle;Signal;HPM_P1;HPM_P2
2022/09/14 00:00:15;;;;;;;8.20;1.60;;;;;;;11.02;97.74;98578.61;105096;1271;68032;-76
2022/09/14 00:03:23;;;;;;;6.50;1.50;;;;;;;11.02;97.79;98574.52;105258;1271;75316;-75
2022/09/14 00:06:15;;;;;;;7.60;1.70;;;;;;;11.03;97.94;98573.38;105150;1271;59729;-75
2022/09/14 00:09:07;;;;;;;7.10;1.50;;;;;;;11.04;98.01;98571.20;105012;1271;60455;-76
2022/09/14 00:11:55;;;;;;;8.10;2.20;;;;;;;11.05;97.88;98565.05;105083;1271;73106;-75
2022/09/14 00:14:43;;;;;;;9.00;1.70;;;;;;;11.06;98.05;98563.34;104976;1271;67058;-75
2022/09/14 00:17:31;;;;;;;10.90;1.50;;;;;;;11.06;97.88;98565.25;104891;1271;74320;-74
2022/09/14 00:20:19;;;;;;;9.30;1.90;;;;;;;11.07;97.94;98560.39;104991;1271;60234;-76
2022/09/14 00:23:09;;;;;;;10.20;1.70;;;;;;;11.07;98.15;98555.97;105061;1271;59640;-76
2022/09/14 00:26:06;;;;;;;7.80;1.60;;;;;;;11.09;98.28;98549.02;105109;1271;74703;-74
2022/09/14 00:28:58;;;;;;;8.30;2.20;;;;;;;11.13;98.53;98550.05;105349;1271;68628;-75
2022/09/14 00:31:46;;;;;;;10.50;1.70;;;;;;;11.14;98.09;98547.36;105021;1271;74261;-75
2022/09/14 00:34:34;;;;;;;9.00;1.60;;;;;;;11.17;98.53;98547.63;105029;1271;59971;-75
2022/09/14 00:37:22;;;;;;;8.50;1.40;;;;;;;11.20;98.28;98546.57;104991;1271;59779;-76
2022/09/14 00:40:11;;;;;;;9.60;1.60;;;;;;;11.22;98.63;98547.41;105287;1271;75181;-74
2022/09/14 00:42:59;;;;;;;8.90;1.50;;;;;;;11.27;98.50;98536.29;105050;1271;69644;-75
2022/09/14 00:45:46;;;;;;;6.20;1.30;;;;;;;11.32;98.60;98531.65;104964;1271;74182;-75
2022/09/14 00:48:34;;;;;;;10.20;2.50;;;;;;;11.37;98.43;98536.81;105239;1271;60770;-74
2022/09/14 00:51:24;;;;;;;10.50;1.80;;;;;;;11.44;98.35;98536.70;104902;1271;60015;-76
2022/09/14 00:54:11;;;;;;;6.70;1.20;;;;;;;11.48;98.23;98534.41;105059;1271;73329;-74
2022/09/14 00:57:02;;;;;;;7.80;1.30;;;;;;;11.53;98.01;98529.27;105311;1270;69123;-75
2022/09/14 00:59:53;;;;;;;8.40;1.30;;;;;;;11.59;97.67;98530.64;104962;1271;73680;-75
2022/09/14 01:02:41;;;;;;;8.10;1.30;;;;;;;11.65;97.67;98527.13;104967;1271;61016;-74
2022/09/14 01:06:17;;;;;;;6.90;1.40;;;;;;;11.71;97.53;98522.23;105325;1271;61857;-75
2022/09/14 01:09:44;;;;;;;8.10;1.50;;;;;;;11.80;97.33;98511.45;104367;1271;1466880;-74
2022/09/14 01:13:16;;;;;;;11.00;1.40;;;;;;;11.88;96.91;98504.63;104397;1277;69559;-75
2022/09/14 01:16:19;;;;;;;11.30;1.40;;;;;;;11.93;96.73;98500.73;104457;1278;74407;-76
2022/09/14 01:19:22;;;;;;;7.20;1.20;;;;;;;11.98;96.44;98503.20;104758;1277;59828;-75
2022/09/14 01:22:40;;;;;;;13.80;2.30;;;;;;;12.03;96.07;98495.94;104497;1277;62036;-75
2022/09/14 01:25:56;;;;;;;6.20;1.10;;;;;;;12.05;95.68;98487.55;104447;1277;73751;-75
2022/09/14 01:29:25;;;;;;;7.50;2.00;;;;;;;12.06;95.26;98489.21;104807;1277;66459;-75
2022/09/14 01:32:28;;;;;;;6.80;1.40;;;;;;;12.06;95.10;98491.80;104430;1277;72960;-76
2022/09/14 01:35:23;;;;;;;8.10;1.40;;;;;;;12.05;95.02;98486.84;104353;1277;60269;-76
2022/09/14 01:38:30;;;;;;;9.10;1.60;;;;;;;12.03;94.80;98488.85;104686;1277;60571;-76
2022/09/14 01:41:23;;;;;;;10.30;2.10;;;;;;;12.00;94.82;98493.64;104616;1278;72246;-76
2022/09/14 01:44:21;;;;;;;8.20;1.30;;;;;;;11.95;94.86;98485.58;104794;1278;67956;-77
2022/09/14 01:47:20;;;;;;;7.90;1.30;;;;;;;11.92;94.99;98492.27;104608;1277;71312;-76
2022/09/14 01:50:16;;;;;;;7.30;1.50;;;;;;;11.90;95.10;98489.82;104904;1274;60251;-76
2022/09/14 01:53:14;;;;;;;7.10;1.40;;;;;;;11.88;95.01;98486.27;105267;1271;62075;-76
2022/09/14 01:56:19;;;;;;;7.50;1.20;;;;;;;11.88;95.32;98491.14;105132;1271;74731;-76
2022/09/14 01:59:19;;;;;;;9.00;1.70;;;;;;;11.86;95.31;98486.64;105189;1271;68031;-76
2022/09/14 02:02:24;;;;;;;6.90;1.40;;;;;;;11.86;95.44;98482.84;105007;1271;74518;-76
2022/09/14 02:05:25;;;;;;;9.90;1.40;;;;;;;11.84;95.56;98483.21;105047;1271;59769;-76
2022/09/14 02:08:13;;;;;;;11.20;1.90;;;;;;;11.82;95.60;98481.23;104987;1271;62607;-78
2022/09/14 02:11:01;;;;;;;9.20;2.20;;;;;;;11.82;95.89;98484.48;105014;1271;73168;-77
2022/09/14 02:13:49;;;;;;;10.80;1.40;;;;;;;11.83;96.14;98481.20;105252;1271;68113;-75
2022/09/14 02:16:42;;;;;;;7.70;1.70;;;;;;;11.86;96.19;98475.85;105203;1271;70272;-75
2022/09/14 02:19:36;;;;;;;8.10;1.60;;;;;;;11.90;96.17;98471.33;104971;1271;60185;-74
2022/09/14 02:22:27;;;;;;;7.10;1.50;;;;;;;11.93;95.87;98467.09;104973;1271;60366;-76
2022/09/14 02:25:19;;;;;;;13.80;1.50;;;;;;;11.96;95.54;98457.22;105057;1270;74751;-75
2022/09/14 02:28:08;;;;;;;6.20;1.50;;;;;;;11.97;95.42;98463.48;105348;1271;68144;-76
2022/09/14 02:31:51;;;;;;;5.70;1.40;;;;;;;11.98;95.38;98472.18;105044;1271;73466;-77
2022/09/14 02:34:53;;;;;;;7.90;1.70;;;;;;;12.00;95.55;98468.58;105027;1271;60541;-78
2022/09/14 02:38:20;;;;;;;6.90;1.50;;;;;;;12.00;95.31;98464.14;105466;1271;62043;-75
2022/09/14 02:41:23;;;;;;;8.60;1.80;;;;;;;11.98;95.49;98463.08;105014;1270;75053;-81
2022/09/14 02:44:29;;;;;;;8.70;1.60;;;;;;;11.95;95.58;98454.81;105107;1271;66986;-78
2022/09/14 02:48:17;;;;;;;5.60;1.20;;;;;;;11.96;95.75;98448.05;105233;1271;71394;-77
2022/09/14 02:51:20;;;;;;;9.70;1.30;;;;;;;11.94;95.81;98443.39;105285;1270;60251;-76
2022/09/14 02:54:42;;;;;;;6.00;1.40;;;;;;;11.93;95.84;98446.86;105065;1270;60989;-75
2022/09/14 02:57:30;;;;;;;7.90;1.60;;;;;;;11.93;95.83;98438.70;104949;1279;72041;-75
2022/09/14 03:00:19;;;;;;;7.00;1.20;;;;;;;11.92;95.86;98430.09;104420;1279;66486;-75
2022/09/14 03:03:10;;;;;;;10.70;2.30;;;;;;;11.91;95.83;98430.09;104552;1279;73137;-76
2022/09/14 03:05:58;;;;;;;8.30;1.50;;;;;;;11.93;95.55;98430.14;104747;1279;59768;-75
2022/09/14 03:08:47;;;;;;;9.60;1.60;;;;;;;11.94;95.37;98433.26;104473;1279;61889;-75
2022/09/14 03:11:35;;;;;;;6.20;1.60;;;;;;;11.93;95.13;98434.41;104417;1279;73191;-76
2022/09/14 03:14:22;;;;;;;7.80;1.50;;;;;;;11.90;95.32;98438.59;104416;1279;66843;-77
2022/09/14 03:17:11;;;;;;;8.90;1.40;;;;;;;11.87;95.35;98438.20;104637;1279;73461;-76
2022/09/14 03:20:11;;;;;;;8.90;1.60;;;;;;;11.84;95.98;98437.70;104396;1278;60149;-76
2022/09/14 03:23:04;;;;;;;8.30;1.50;;;;;;;11.82;96.10;98430.42;104612;1279;59715;-75
2022/09/14 03:25:52;;;;;;;5.90;1.30;;;;;;;11.84;96.00;98430.20;104564;1279;72002;-76
2022/09/14 03:28:40;;;;;;;8.60;1.80;;;;;;;11.86;95.98;98432.70;104792;1279;69106;-75
2022/09/14 03:31:28;;;;;;;10.70;1.90;;;;;;;11.88;95.97;98429.42;104303;1279;73397;-75
2022/09/14 03:34:16;;;;;;;6.60;1.40;;;;;;;11.91;95.65;98429.64;104670;1271;60456;-73
2022/09/14 03:37:05;;;;;;;7.60;1.30;;;;;;;11.96;95.50;98430.42;105405;1271;61552;-73
2022/09/14 03:39:53;;;;;;;7.80;2.10;;;;;;;12.00;95.38;98431.89;105248;1271;70974;-74
2022/09/14 03:42:47;;;;;;;7.50;1.40;;;;;;;12.04;95.19;98432.14;104888;1273;66798;-74
2022/09/14 03:45:36;;;;;;;11.20;1.40;;;;;;;12.07;95.01;98426.11;105070;1271;74180;-74
2022/09/14 03:48:23;;;;;;;8.10;1.70;;;;;;;12.09;94.81;98422.61;105162;1271;59828;-75
2022/09/14 03:51:13;;;;;;;8.70;1.60;;;;;;;12.08;94.67;98420.91;105047;1271;59906;-74
2022/09/14 03:54:01;;;;;;;7.60;1.90;;;;;;;12.07;94.88;98428.69;104940;1271;74713;-73
2022/09/14 03:56:52;;;;;;;5.50;1.30;;;;;;;12.07;94.96;98426.52;105244;1271;67383;-74
2022/09/14 03:59:40;;;;;;;7.40;1.50;;;;;;;12.09;94.94;98427.91;105190;1271;74279;-75
2022/09/14 04:02:30;;;;;;;7.00;1.30;;;;;;;12.11;94.84;98427.00;105187;1269;60582;-75
2022/09/14 04:05:19;;;;;;;7.00;1.40;;;;;;;12.13;94.98;98428.54;104986;1271;60934;-76
2022/09/14 04:08:08;;;;;;;6.90;1.40;;;;;;;12.16;95.03;98434.92;104954;1271;73746;-74
2022/09/14 04:10:56;;;;;;;7.00;1.30;;;;;;;12.18;95.42;98435.05;105029;1271;69566;-74
2022/09/14 04:13:46;;;;;;;7.90;1.40;;;;;;;12.20;95.66;98438.39;104969;1271;71555;-76
2022/09/14 04:16:34;;;;;;;7.60;1.80;;;;;;;12.21;96.12;98439.58;105176;1271;59852;-75
2022/09/14 04:19:22;;;;;;;8.30;1.60;;;;;;;12.20;96.85;98442.52;105279;1271;61298;-79
2022/09/14 04:22:10;;;;;;;13.60;2.00;;;;;;;12.18;97.41;98448.27;105019;1271;73238;-76
2022/09/14 04:24:59;;;;;;;9.00;1.70;;;;;;;12.17;97.81;98453.94;105553;1271;69517;-75
2022/09/14 04:27:47;;;;;;;7.60;1.50;;;;;;;12.15;98.41;98456.20;105056;1271;73906;-75
2022/09/14 04:31:01;;;;;;;7.40;1.40;;;;;;;12.13;99.36;98455.11;105187;1271;60256;-75
2022/09/14 04:33:50;;;;;;;7.30;1.50;;;;;;;12.09;99.92;98461.27;105086;1271;62373;-75
2022/09/14 04:36:41;;;;;;;10.70;1.60;;;;;;;12.07;100.00;98465.98;105223;1271;72276;-76
2022/09/14 04:39:29;;;;;;;9.50;1.40;;;;;;;12.05;100.00;98462.31;105173;1271;67530;-76
2022/09/14 04:42:17;;;;;;;6.30;1.20;;;;;;;12.03;100.00;98456.48;105184;1271;73217;-74
2022/09/14 04:45:06;;;;;;;5.30;1.10;;;;;;;11.98;100.00;98453.08;105174;1271;61272;-76
2022/09/14 04:47:54;;;;;;;7.30;1.20;;;;;;;11.98;100.00;98452.25;105190;1271;62026;-75
2022/09/14 04:50:42;;;;;;;5.00;1.30;;;;;;;11.98;100.00;98454.52;105170;1271;74911;-75
2022/09/14 04:53:35;;;;;;;4.40;1.00;;;;;;;11.98;99.96;98447.05;105493;1271;67102;-75
2022/09/14 04:56:24;;;;;;;5.20;1.10;;;;;;;12.00;99.79;98450.71;105174;1271;71611;-76
2022/09/14 04:59:14;;;;;;;7.40;1.50;;;;;;;12.01;100.00;98452.78;105222;1271;59800;-76
2022/09/14 05:02:02;;;;;;;6.30;1.40;;;;;;;12.02;100.00;98453.32;105486;1271;60513;-76
2022/09/14 05:04:50;;;;;;;5.40;1.30;;;;;;;12.04;100.00;98452.78;105059;1270;72094;-75
2022/09/14 05:07:39;;;;;;;8.30;1.90;;;;;;;12.06;100.00;98450.94;105103;1271;68979;-74
2022/09/14 05:10:27;;;;;;;6.50;1.30;;;;;;;12.08;100.00;98448.64;105373;1271;74577;-76
2022/09/14 05:13:15;;;;;;;7.60;1.40;;;;;;;12.12;100.00;98447.90;105203;1271;59739;-73
2022/09/14 05:16:07;;;;;;;6.80;1.50;;;;;;;12.19;100.00;98453.83;105249;1271;60532;-75
2022/09/14 05:19:03;;;;;;;5.90;1.20;;;;;;;12.26;100.00;98447.59;105118;1271;72218;-77
2022/09/14 05:21:52;;;;;;;7.20;1.70;;;;;;;12.31;100.00;98451.61;105182;1271;67953;-76
2022/09/14 05:24:40;;;;;;;8.20;1.50;;;;;;;12.32;100.00;98452.73;105117;1271;74077;-78
2022/09/14 05:27:28;;;;;;;6.40;1.50;;;;;;;12.36;100.00;98454.10;105056;1271;60971;-75
2022/09/14 05:30:16;;;;;;;7.30;1.60;;;;;;;12.48;100.00;98453.88;105215;1271;60815;-76
2022/09/14 05:33:04;;;;;;;5.80;1.60;;;;;;;12.56;99.80;98452.77;105097;1271;73363;-77
2022/09/14 05:36:00;;;;;;;7.80;1.50;;;;;;;12.67;99.59;98449.81;105299;1271;67904;-80
2022/09/14 05:38:48;;;;;;;7.40;1.30;;;;;;;12.78;98.66;98450.86;105533;1271;71815;-79
2022/09/14 05:41:37;;;;;;;6.10;1.30;;;;;;;12.89;98.11;98453.04;105099;1271;59671;-79
2022/09/14 05:44:24;;;;;;;7.30;1.30;;;;;;;13.01;97.70;98449.55;105382;1271;61271;-80
2022/09/14 05:47:15;;;;;;;6.70;1.10;;;;;;;13.11;96.80;98449.65;105957;1273;74219;-80
2022/09/14 05:50:03;;;;;;;6.40;1.20;;;;;;;13.17;96.19;98453.56;106818;1273;66606;-78
2022/09/14 05:52:52;;;;;;;5.80;1.20;;;;;;;13.17;95.52;98458.20;105776;1274;73057;-79
2022/09/14 05:55:40;;;;;;;6.40;1.30;;;;;;;13.16;95.21;98461.21;105346;1271;59801;-80
2022/09/14 05:58:30;;;;;;;5.70;1.20;;;;;;;13.16;95.18;98464.25;105094;1271;60499;-79
2022/09/14 06:01:26;;;;;;;7.30;1.10;;;;;;;13.17;95.34;98463.75;105270;1271;72102;-79
2022/09/14 06:04:14;;;;;;;5.40;1.20;;;;;;;13.20;95.33;98456.41;105166;1270;66520;-75
2022/09/14 06:07:02;;;;;;;8.00;1.90;;;;;;;13.26;95.21;98464.43;105434;1271;72890;-77
2022/09/14 06:10:06;;;;;;;6.50;1.80;;;;;;;13.31;94.49;98458.95;105096;1271;60793;-75
2022/09/14 06:12:53;;;;;;;6.40;1.40;;;;;;;13.36;94.02;98461.78;105020;1271;61041;-76
2022/09/14 06:15:42;;;;;;;7.80;1.50;;;;;;;13.53;93.77;98461.45;104989;1271;73167;-74
2022/09/14 06:18:32;;;;;;;6.10;1.20;;;;;;;13.72;92.75;98467.23;105044;1271;69554;-77
2022/09/14 06:21:21;;;;;;;7.10;1.60;;;;;;;14.07;92.39;98464.45;105029;1271;73357;-75
2022/09/14 06:24:13;;;;;;;6.30;1.40;;;;;;;14.57;89.45;98469.33;105031;1271;60253;-75
2022/09/14 06:27:01;;;;;;;10.00;2.30;;;;;;;15.05;87.24;98468.41;105189;1268;62350;-76
2022/09/14 06:29:52;;;;;;;6.80;1.50;;;;;;;15.42;83.70;98466.67;105134;1271;74068;-75
2022/09/14 06:32:41;;;;;;;6.40;1.50;;;;;;;16.15;80.57;98459.76;105354;1271;68733;-75
2022/09/14 06:35:32;;;;;;;8.30;1.90;;;;;;;17.46;76.15;98456.98;105028;1271;73981;-76
2022/09/14 06:38:20;;;;;;;8.10;1.40;;;;;;;17.42;74.43;98454.36;105026;1271;59592;-73
2022/09/14 06:41:13;;;;;;;6.90;1.50;;;;;;;17.62;70.93;98448.58;105292;1271;60908;-76
2022/09/14 06:44:02;;;;;;;6.70;1.30;;;;;;;19.01;67.79;98451.02;105359;1271;73314;-75
2022/09/14 06:46:50;;;;;;;7.90;1.40;;;;;;;19.96;63.65;98448.57;105008;1274;69632;-75
2022/09/14 06:49:38;;;;;;;7.40;1.60;;;;;;;20.24;62.58;98443.58;104998;1272;73460;-75
2022/09/14 06:52:26;;;;;;;9.10;1.60;;;;;;;21.29;58.97;98442.90;105033;1273;59838;-74
2022/09/14 06:55:19;;;;;;;5.60;1.20;;;;;;;21.14;56.14;98443.76;105083;1274;60401;-76
2022/09/14 06:58:08;;;;;;;6.40;1.20;;;;;;;20.27;58.22;98448.24;105078;1274;74743;-75
2022/09/14 07:01:02;;;;;;;6.20;1.40;;;;;;;19.62;60.26;98456.60;104976;1274;69461;-75
2022/09/14 07:03:51;;;;;;;7.10;1.10;;;;;;;19.14;62.07;98459.42;105344;1274;73123;-76
2022/09/14 07:06:46;;;;;;;9.40;1.50;;;;;;;18.64;63.11;98463.48;105077;1274;59775;-76
2022/09/14 07:09:36;;;;;;;7.80;1.40;;;;;;;17.80;65.59;98474.19;104967;1274;59669;-76
2022/09/14 07:12:24;;;;;;;7.90;1.30;;;;;;;17.22;68.03;98482.35;104987;1274;73338;-76
2022/09/14 07:15:12;;;;;;;5.00;1.20;;;;;;;16.85;70.04;98484.21;104973;1274;67357;-76
2022/09/14 07:18:00;;;;;;;6.40;1.30;;;;;;;16.46;71.64;98483.34;104938;1274;73334;-75
2022/09/14 07:20:49;;;;;;;7.20;1.60;;;;;;;16.20;72.89;98487.33;105356;1274;59949;-77
2022/09/14 07:23:40;;;;;;;6.30;1.10;;;;;;;16.11;73.58;98486.49;105066;1274;62132;-76
2022/09/14 07:26:38;;;;;;;6.50;1.40;;;;;;;16.02;73.94;98486.46;105213;1273;72049;-76
2022/09/14 07:29:26;;;;;;;7.40;1.40;;;;;;;16.13;74.48;98490.48;105286;1274;68654;-75
2022/09/14 07:32:14;;;;;;;7.40;1.40;;;;;;;17.05;71.93;98488.67;105044;1274;73804;-75
2022/09/14 07:35:04;;;;;;;7.70;1.50;;;;;;;19.16;64.93;98478.48;105077;1274;61015;-75
2022/09/14 07:37:53;;;;;;;6.50;1.50;;;;;;;21.16;58.32;98474.08;104952;1272;60625;-76
2022/09/14 07:40:42;;;;;;;13.10;6.30;;;;;;;22.82;52.37;98469.48;105011;1274;72755;-77
2022/09/14 07:43:30;;;;;;;8.90;1.20;;;;;;;24.25;47.50;98475.42;105044;1273;67794;-77
2022/09/14 07:46:20;;;;;;;6.30;1.60;;;;;;;25.35;44.69;98472.08;105347;1271;73156;-76
2022/09/14 07:49:09;;;;;;;6.70;1.40;;;;;;;26.13;41.14;98475.61;105081;1271;59623;-75
2022/09/14 07:51:57;;;;;;;6.90;1.40;;;;;;;26.61;39.18;98474.34;104987;1271;60683;-76
2022/09/14 07:54:45;;;;;;;6.40;1.40;;;;;;;27.19;38.54;98473.55;105072;1271;75441;-77
2022/09/14 07:57:33;;;;;;;6.80;1.10;;;;;;;26.93;38.24;98472.73;105133;1270;66723;-77
2022/09/14 08:00:41;;;;;;;5.90;1.00;;;;;;;27.15;37.50;98473.53;105138;1271;72598;-79
2022/09/14 08:03:30;;;;;;;5.50;1.10;;;;;;;27.21;37.50;98470.99;105209;1271;59665;-76
2022/09/14 08:06:22;;;;;;;7.40;1.20;;;;;;;27.84;36.77;98471.95;105058;1271;60770;-75
2022/09/14 08:09:10;;;;;;;9.00;2.30;;;;;;;28.38;35.81;98469.09;105236;1271;74799;-76
2022/09/14 08:11:58;;;;;;;6.30;1.30;;;;;;;28.70;35.06;98467.40;105055;1271;67556;-76
2022/09/14 08:14:46;;;;;;;6.70;1.20;;;;;;;29.10;33.97;98466.19;105255;1271;72879;-75
2022/09/14 08:17:34;;;;;;;7.30;1.40;;;;;;;29.41;33.45;98459.66;105075;1271;59779;-76
2022/09/14 08:20:22;;;;;;;8.00;1.30;;;;;;;29.59;32.74;98455.77;105498;1271;59734;-76
2022/09/14 08:23:10;;;;;;;6.40;1.40;;;;;;;29.69;32.87;98457.96;105380;1271;73479;-75
2022/09/14 08:26:16;;;;;;;6.20;1.10;;;;;;;29.90;32.43;98457.19;105347;1271;66817;-74
2022/09/14 08:29:03;;;;;;;6.70;1.30;;;;;;;29.81;32.10;98457.18;105513;1271;72952;-74
2022/09/14 08:31:52;;;;;;;7.10;1.40;;;;;;;28.96;33.25;98455.02;105007;1271;59647;-75
2022/09/14 08:34:40;;;;;;;6.90;1.30;;;;;;;28.82;33.45;98456.64;105279;1271;62099;-75
2022/09/14 08:37:28;;;;;;;7.20;1.40;;;;;;;28.00;34.37;98460.12;105001;1271;74731;-75
2022/09/14 08:40:16;;;;;;;6.30;1.10;;;;;;;28.39;33.99;98463.16;105160;1271;67511;-75
2022/09/14 08:43:05;;;;;;;7.00;1.30;;;;;;;27.48;35.08;98464.98;104989;1271;73812;-74
2022/09/14 08:46:03;;;;;;;6.60;1.30;;;;;;;27.41;35.25;98465.19;105017;1271;59772;-74
2022/09/14 08:48:52;;;;;;;7.30;1.40;;;;;;;26.72;36.20;98458.52;105021;1271;62129;-73
2022/09/14 08:51:40;;;;;;;7.40;2.00;;;;;;;27.52;35.11;98461.51;105173;1271;71883;-75
2022/09/14 08:54:29;;;;;;;5.60;1.20;;;;;;;28.00;34.51;98457.04;105202;1271;69142;-75
2022/09/14 08:57:39;;;;;;;7.10;1.40;;;;;;;28.78;33.33;98454.73;105023;1271;72539;-75
2022/09/14 09:00:51;;;;;;;9.20;2.60;;;;;;;29.56;31.85;98452.13;105225;1271;59592;-76
2022/09/14 09:03:51;;;;;;;7.10;1.40;;;;;;;29.77;31.43;98449.25;105400;1271;60384;-76
2022/09/14 09:07:02;;;;;;;7.30;1.30;;;;;;;29.29;31.23;98449.69;105137;1271;74747;-74
2022/09/14 09:09:55;;;;;;;6.10;1.20;;;;;;;29.36;31.48;98452.41;105282;1271;67881;-73
2022/09/14 09:12:54;;;;;;;7.20;1.90;;;;;;;29.85;31.19;98458.31;104989;1271;71731;-74
2022/09/14 09:15:54;;;;;;;7.30;2.30;;;;;;;30.33;30.58;98460.02;105046;1271;60303;-75
2022/09/14 09:18:52;;;;;;;5.40;1.00;;;;;;;30.49;30.30;98456.59;105156;1271;59611;-75
2022/09/14 09:21:46;;;;;;;6.00;1.30;;;;;;;30.29;30.49;98463.45;105070;1271;74695;-75
2022/09/14 09:24:52;;;;;;;5.10;1.10;;;;;;;30.69;30.24;98465.61;105101;1271;66745;-74
2022/09/14 09:27:40;;;;;;;5.50;0.90;;;;;;;30.52;29.97;98465.15;105055;1271;73739;-75
2022/09/14 09:30:29;;;;;;;5.90;1.20;;;;;;;29.91;31.15;98476.60;105133;1271;59741;-74
2022/09/14 09:33:24;;;;;;;5.90;1.10;;;;;;;29.55;30.69;98474.42;104972;1271;62070;-74
2022/09/14 09:36:38;;;;;;;4.90;0.90;;;;;;;28.13;32.78;98477.33;104991;1271;71962;-76
2022/09/14 09:39:30;;;;;;;6.40;1.10;;;;;;;26.33;35.77;98482.02;105713;1271;66757;-76
2022/09/14 09:42:25;;;;;;;4.70;0.90;;;;;;;24.92;38.75;98486.88;105248;1271;73905;-75
2022/09/14 09:45:13;;;;;;;6.60;1.10;;;;;;;23.26;42.94;98492.30;105090;1271;59547;-75
2022/09/14 09:48:09;;;;;;;6.70;1.10;;;;;;;22.00;46.42;98495.77;105060;1271;61862;-74
2022/09/14 09:51:23;;;;;;;5.90;1.00;;;;;;;21.29;49.11;98500.09;105096;1271;71959;-74
2022/09/14 09:54:14;;;;;;;6.10;1.40;;;;;;;20.96;50.24;98488.98;105348;1271;69721;-76
2022/09/14 09:57:18;;;;;;;7.60;1.00;;;;;;;20.82;51.12;98488.36;105063;1273;74505;-75
2022/09/14 10:00:21;;;;;;;6.50;1.10;;;;;;;21.08;50.59;98481.86;105117;1274;59754;-77
2022/09/14 10:03:36;;;;;;;4.80;1.00;;;;;;;21.69;49.42;98484.89;105194;1274;59583;-77
2022/09/14 10:06:27;;;;;;;6.50;1.60;;;;;;;22.59;46.22;98479.16;105347;1274;74782;-75
2022/09/14 10:09:29;;;;;;;5.70;1.00;;;;;;;23.30;43.81;98482.05;104929;1274;68380;-76
2022/09/14 10:12:18;;;;;;;12.40;1.30;;;;;;;22.62;45.24;98480.88;105114;1274;72954;-76
2022/09/14 10:15:15;;;;;;;6.40;1.10;;;;;;;22.85;45.00;98480.84;105620;1271;59774;-76
2022/09/14 10:18:10;;;;;;;7.30;1.30;;;;;;;23.40;43.67;98480.38;105022;1271;59673;-75
2022/09/14 10:21:01;;;;;;;5.90;0.90;;;;;;;23.25;44.21;98480.00;105037;1271;72210;-76
2022/09/14 10:24:20;;;;;;;5.80;1.00;;;;;;;23.95;43.70;98475.80;105598;1271;68027;-74
2022/09/14 10:27:35;;;;;;;7.40;1.20;;;;;;;24.54;42.02;98476.70;105218;1271;72968;-77
2022/09/14 10:30:44;;;;;;;6.60;1.10;;;;;;;25.07;40.43;98476.80;105272;1271;59687;-79
2022/09/14 10:33:34;;;;;;;7.50;1.20;;;;;;;25.11;39.84;98471.40;105514;1271;60596;-81
2022/09/14 10:36:46;;;;;;;6.40;1.40;;;;;;;24.71;39.74;98477.36;104965;1271;72244;-77
2022/09/14 10:39:52;;;;;;;7.50;1.50;;;;;;;24.05;41.40;98478.92;105095;1271;68083;-78
2022/09/14 10:43:07;;;;;;;6.20;1.10;;;;;;;23.82;42.21;98484.65;105225;1271;72278;-79
2022/09/14 10:46:03;;;;;;;7.40;1.40;;;;;;;23.81;41.20;98477.99;105230;1271;59662;-76
2022/09/14 10:49:15;;;;;;;5.50;1.10;;;;;;;23.62;41.75;98470.59;105293;1271;59630;-77
2022/09/14 10:52:24;;;;;;;5.20;1.00;;;;;;;24.53;40.01;98470.16;105099;1271;74598;-77
2022/09/14 10:55:41;;;;;;;5.10;1.10;;;;;;;24.64;39.52;98472.73;105309;1271;67769;-76
2022/09/14 10:59:00;;;;;;;6.80;1.40;;;;;;;24.31;40.05;98470.84;105269;1271;72880;-73
2022/09/14 11:02:03;;;;;;;5.70;1.20;;;;;;;25.17;38.45;98462.77;105292;1271;59634;-75
2022/09/14 11:05:22;;;;;;;6.30;0.90;;;;;;;25.69;37.83;98467.23;104982;1271;61939;-75
2022/09/14 11:08:31;;;;;;;5.20;1.00;;;;;;;25.49;37.49;98476.16;105036;1271;71836;-75
2022/09/14 11:11:42;;;;;;;5.80;1.20;;;;;;;24.67;38.93;98467.11;105451;1271;67328;-76
2022/09/14 11:15:09;;;;;;;5.90;1.20;;;;;;;23.76;41.12;98475.79;105428;1271;73922;-75
2022/09/14 11:18:30;;;;;;;6.10;1.80;;;;;;;22.81;43.44;98486.08;105271;1271;59799;-76
2022/09/14 11:21:41;;;;;;;5.80;1.20;;;;;;;21.98;45.68;98495.21;104997;1274;60957;-76
2022/09/14 11:24:42;;;;;;;6.20;1.60;;;;;;;21.12;47.69;98483.14;105182;1271;74977;-76
2022/09/14 11:28:06;;;;;;;6.90;1.90;;;;;;;20.43;49.18;98487.25;105131;1271;66733;-75
2022/09/14 11:30:58;;;;;;;6.20;1.20;;;;;;;19.84;51.46;98497.84;104713;1279;73014;-77
2022/09/14 11:34:20;;;;;;;7.50;1.30;;;;;;;19.54;52.75;98496.45;104527;1279;59588;-75
2022/09/14 11:37:16;;;;;;;6.90;1.30;;;;;;;19.33;53.68;98495.69;104768;1279;61273;-76
2022/09/14 11:40:14;;;;;;;8.50;1.70;;;;;;;19.17;54.53;98487.99;104462;1280;72130;-77
2022/09/14 11:43:31;;;;;;;7.60;1.50;;;;;;;18.90;55.21;98493.86;104567;1279;69822;-75
2022/09/14 11:46:31;;;;;;;6.50;1.10;;;;;;;18.67;56.17;98492.86;104567;1280;72828;-77
2022/09/14 11:49:28;;;;;;;7.30;1.20;;;;;;;18.55;55.53;98491.60;104597;1279;59856;-76
2022/09/14 11:52:20;;;;;;;7.00;1.00;;;;;;;18.58;55.25;98483.48;104302;1282;60850;-75
2022/09/14 11:55:16;;;;;;;6.50;1.10;;;;;;;18.74;55.00;98487.02;104674;1279;75144;-75
2022/09/14 11:58:07;;;;;;;5.80;1.00;;;;;;;18.99;54.00;98490.59;104398;1281;68122;-76
2022/09/14 12:01:26;;;;;;;6.40;1.20;;;;;;;19.12;53.89;98493.29;104419;1279;73345;-77
2022/09/14 12:04:17;;;;;;;6.00;1.00;;;;;;;19.16;53.05;98495.13;104446;1280;59690;-77
2022/09/14 12:07:06;;;;;;;7.00;1.20;;;;;;;19.17;52.94;98495.45;104679;1274;59471;-80
2022/09/14 12:10:18;;;;;;;6.30;1.20;;;;;;;19.27;52.54;98492.02;105055;1271;74610;-76
2022/09/14 12:13:06;;;;;;;5.80;1.10;;;;;;;19.29;52.60;98497.03;105314;1271;68856;-76
2022/09/14 12:16:08;;;;;;;5.70;1.10;;;;;;;19.14;53.11;98503.18;105343;1271;73937;-76
2022/09/14 12:18:56;;;;;;;6.80;1.30;;;;;;;19.08;53.83;98499.39;105227;1271;59682;-77
2022/09/14 12:21:44;;;;;;;6.00;1.10;;;;;;;18.94;53.96;98499.34;105217;1271;59744;-75
2022/09/14 12:24:38;;;;;;;5.90;1.30;;;;;;;18.69;54.75;98500.90;105307;1271;71708;-74
2022/09/14 12:27:31;;;;;;;7.20;1.50;;;;;;;18.45;55.24;98501.18;105139;1271;69710;-77
2022/09/14 12:30:40;;;;;;;7.00;1.50;;;;;;;18.21;56.19;98510.27;105076;1271;74397;-76
2022/09/14 12:33:34;;;;;;;8.30;1.40;;;;;;;17.92;57.00;98513.91;105258;1271;59663;-76
2022/09/14 12:36:21;;;;;;;6.40;1.40;;;;;;;17.80;58.06;98515.31;104972;1271;61041;-76
2022/09/14 12:39:25;;;;;;;8.00;1.40;;;;;;;17.73;58.54;98516.88;105112;1271;73230;-75
2022/09/14 12:42:31;;;;;;;7.40;1.80;;;;;;;17.62;58.89;98515.35;105079;1271;67709;-76
2022/09/14 12:45:50;;;;;;;7.80;1.80;;;;;;;17.42;60.62;98516.62;105073;1271;75235;-77
2022/09/14 12:49:02;;;;;;;7.30;1.60;;;;;;;17.16;63.25;98521.05;105166;1271;59782;-76
2022/09/14 12:51:51;;;;;;;7.90;1.50;;;;;;;17.18;63.71;98527.12;105083;1271;59669;-75
2022/09/14 12:55:03;;;;;;;7.00;1.30;;;;;;;17.45;62.46;98522.52;105117;1272;73269;-76
2022/09/14 12:58:15;;;;;;;5.70;1.30;;;;;;;17.76;59.87;98520.77;105218;1271;67040;-76
2022/09/14 13:01:24;;;;;;;8.30;2.00;;;;;;;17.93;58.78;98518.47;105168;1271;75364;-76
2022/09/14 13:04:22;;;;;;;9.00;3.20;;;;;;;17.96;57.87;98515.68;104954;1271;59685;-76
2022/09/14 13:07:18;;;;;;;6.50;1.60;;;;;;;18.01;57.64;98513.73;105100;1271;59634;-76
2022/09/14 13:10:07;;;;;;;7.60;1.70;;;;;;;17.98;58.03;98515.27;103938;1271;1997496;-76
2022/09/14 13:12:56;;;;;;;8.80;1.40;;;;;;;18.07;57.65;98519.70;105022;1272;68219;-79
2022/09/14 13:15:58;;;;;;;7.80;2.30;;;;;;;18.07;57.28;98520.94;105083;1271;74541;-77
2022/09/14 13:18:47;;;;;;;6.70;2.00;;;;;;;18.11;57.16;98524.25;105363;1271;59565;-77
2022/09/14 13:21:45;;;;;;;7.50;1.80;;;;;;;18.15;56.94;98526.00;105085;1271;61045;-75
2022/09/14 13:24:33;;;;;;;8.00;1.60;;;;;;;18.20;57.64;98522.48;104934;1271;73225;-76
2022/09/14 13:27:34;;;;;;;6.50;1.40;;;;;;;18.17;57.19;98522.58;105242;1271;67094;-76
2022/09/14 13:30:24;;;;;;;8.20;1.90;;;;;;;18.04;57.64;98521.31;105145;1271;71553;-76
2022/09/14 13:33:16;;;;;;;7.90;1.80;;;;;;;17.89;58.45;98520.15;105061;1269;59764;-75
2022/09/14 13:36:05;;;;;;;7.70;1.60;;;;;;;17.80;58.69;98517.30;104941;1271;59675;-75